createdAt,value
2022-08-22T00:00:33.778Z,3.88
2022-08-22T00:02:45.054Z,2.88
2022-08-22T00:02:53.533Z,4.38
2022-08-22T00:02:57.904Z,3.60
2022-08-22T00:03:10.555Z,5.82
2022-08-22T00:03:31.577Z,3.97
2022-08-22T00:06:11.247Z,4.22
2022-08-22T00:08:53.497Z,3.80
2022-08-22T00:11:25.814Z,3.85
2022-08-22T00:14:04.430Z,3.95
2022-08-22T00:17:01.920Z,4.20
2022-08-22T00:19:34.392Z,3.83
2022-08-22T00:22:29.632Z,3.65
2022-08-22T00:25:25.494Z,3.70
2022-08-22T00:28:28.194Z,3.80
2022-08-22T00:31:02.867Z,3.13
2022-08-22T00:33:40.186Z,3.92
2022-08-22T00:36:33.321Z,4.60
2022-08-22T00:39:11.895Z,3.75
2022-08-22T00:42:00.646Z,3.90
2022-08-22T00:44:53.137Z,3.88
2022-08-22T00:47:36.162Z,4.00
2022-08-22T00:50:26.845Z,3.45
2022-08-22T00:53:39.657Z,4.00
2022-08-22T00:56:32.245Z,3.25
2022-08-22T00:59:36.566Z,3.33
2022-08-22T01:02:31.922Z,3.78
2022-08-22T01:05:25.203Z,3.33
2022-08-22T01:08:14.714Z,4.05
2022-08-22T01:11:09.062Z,3.78
2022-08-22T01:13:45.002Z,4.22
2022-08-22T01:16:48.942Z,4.15
2022-08-22T01:19:37.541Z,3.47
2022-08-22T01:22:37.957Z,3.92
2022-08-22T01:25:32.390Z,4.40
2022-08-22T01:28:09.811Z,3.80
2022-08-22T01:31:32.917Z,4.13
2022-08-22T01:34:18.288Z,3.42
2022-08-22T01:36:50.846Z,3.63
2022-08-22T01:39:51.298Z,3.58
2022-08-22T01:42:26.811Z,4.03
2022-08-22T01:45:10.334Z,4.05
2022-08-22T01:47:57.881Z,3.67
2022-08-22T01:50:36.556Z,3.65
2022-08-22T01:53:16.181Z,3.33
2022-08-22T01:56:04.174Z,4.00
2022-08-22T01:58:33.339Z,4.05
2022-08-22T02:01:18.095Z,3.70
2022-08-22T02:04:18.492Z,4.28
2022-08-22T02:07:03.325Z,3.45
2022-08-22T02:10:00.294Z,3.58
2022-08-22T02:12:32.775Z,3.60
2022-08-22T02:15:19.296Z,3.65
2022-08-22T02:18:03.976Z,4.07
2022-08-22T02:20:47.442Z,3.90
2022-08-22T02:23:29.549Z,3.77
2022-08-22T02:26:02.131Z,4.40
2022-08-22T02:29:04.658Z,3.88
2022-08-22T02:31:47.903Z,3.85
2022-08-22T02:34:34.848Z,2.92
2022-08-22T02:37:36.824Z,3.55
2022-08-22T02:40:16.373Z,3.20
2022-08-22T02:43:18.596Z,4.13
2022-08-22T02:45:54.730Z,4.03
2022-08-22T02:48:44.367Z,4.22
2022-08-22T02:51:25.574Z,3.63
2022-08-22T02:54:13.093Z,4.15
2022-08-22T02:56:52.515Z,3.67
2022-08-22T02:59:35.469Z,4.55
2022-08-22T03:02:27.861Z,3.75
2022-08-22T03:05:21.416Z,3.80
2022-08-22T03:08:02.400Z,2.78
2022-08-22T03:10:36.547Z,3.88
2022-08-22T03:13:13.592Z,4.15
2022-08-22T03:15:52.669Z,3.83
2022-08-22T03:18:33.375Z,4.07
2022-08-22T03:21:30.351Z,3.70
2022-08-22T03:24:11.253Z,4.20
2022-08-22T03:26:46.843Z,3.97
2022-08-22T03:29:29.266Z,5.03
2022-08-22T03:32:24.045Z,3.85
2022-08-22T03:35:02.439Z,4.15
2022-08-22T03:37:37.717Z,4.00
2022-08-22T03:40:32.599Z,3.95
2022-08-22T03:43:25.347Z,4.28
2022-08-22T03:46:33.825Z,3.95
2022-08-22T03:49:20.956Z,3.95
2022-08-22T03:52:18.664Z,4.35
2022-08-22T03:54:54.378Z,4.10
2022-08-22T03:58:06.312Z,3.75
2022-08-22T04:01:16.435Z,4.60
2022-08-22T04:03:52.278Z,4.22
2022-08-22T04:06:45.763Z,3.78
2022-08-22T04:09:32.968Z,4.30
2022-08-22T04:12:27.445Z,4.03
2022-08-22T04:15:36.808Z,4.28
2022-08-22T04:18:22.105Z,4.68
2022-08-22T04:21:08.248Z,4.45
2022-08-22T04:23:49.994Z,4.43
2022-08-22T04:26:28.465Z,4.47
2022-08-22T04:29:03.382Z,4.50
2022-08-22T04:31:36.531Z,4.40
2022-08-22T04:34:17.329Z,4.77
2022-08-22T04:37:03.691Z,4.00
2022-08-22T04:39:46.919Z,4.20
2022-08-22T04:42:32.667Z,4.72
2022-08-22T04:45:12.208Z,5.15
2022-08-22T04:48:04.364Z,4.90
2022-08-22T04:50:54.690Z,5.10
2022-08-22T04:53:40.929Z,4.95
2022-08-22T04:56:35.886Z,4.85
2022-08-22T04:59:10.357Z,4.95
2022-08-22T05:01:44.919Z,4.38
2022-08-22T05:04:16.728Z,5.07
2022-08-22T05:06:49.241Z,5.00
2022-08-22T05:09:20.829Z,4.97
2022-08-22T05:11:52.726Z,4.38
2022-08-22T05:14:36.927Z,4.65
2022-08-22T05:19:37.245Z,4.53
2022-08-22T05:22:12.620Z,4.75
2022-08-22T05:24:46.426Z,4.32
2022-08-22T05:27:23.214Z,4.10
2022-08-22T05:29:55.861Z,4.90
2022-08-22T05:32:28.200Z,5.25
2022-08-22T05:35:02.159Z,4.88
2022-08-22T05:40:06.490Z,5.88
2022-08-22T05:42:37.462Z,4.03
2022-08-22T05:45:06.784Z,5.50
2022-08-22T05:47:38.734Z,5.75
2022-08-22T05:50:08.134Z,4.78
2022-08-22T05:52:44.102Z,4.97
2022-08-22T05:55:31.982Z,4.95
2022-08-22T05:58:10.782Z,5.35
2022-08-22T06:00:40.781Z,4.93
2022-08-22T06:03:18.438Z,5.22
2022-08-22T06:05:48.119Z,5.40
2022-08-22T06:08:20.732Z,5.93
2022-08-22T06:10:50.740Z,5.10
2022-08-22T06:13:32.621Z,5.45
2022-08-22T06:15:59.672Z,5.30
2022-08-22T06:18:27.677Z,4.88
2022-08-22T06:21:00.808Z,5.05
2022-08-22T06:23:29.872Z,5.67
2022-08-22T06:25:59.447Z,5.30
2022-08-22T06:28:28.527Z,4.82
2022-08-22T06:30:57.666Z,5.10
2022-08-22T06:33:27.048Z,5.07
2022-08-22T06:36:31.815Z,5.40
2022-08-22T06:39:18.525Z,5.53
2022-08-22T06:41:54.098Z,5.43
2022-08-22T06:44:41.624Z,6.45
2022-08-22T06:47:10.859Z,4.90
2022-08-22T06:49:39.765Z,5.25
2022-08-22T06:52:08.468Z,6.30
2022-08-22T06:54:36.783Z,6.03
2022-08-22T06:57:06.521Z,6.22
2022-08-22T06:59:36.938Z,6.10
2022-08-22T07:02:26.516Z,6.22
2022-08-22T07:04:53.659Z,6.10
2022-08-22T07:07:21.094Z,6.07
2022-08-22T07:09:55.340Z,6.40
2022-08-22T07:12:26.549Z,6.68
2022-08-22T07:14:55.045Z,6.70
2022-08-22T07:17:24.320Z,6.85
2022-08-22T07:20:10.822Z,7.20
2022-08-22T07:22:38.751Z,6.38
2022-08-22T07:25:11.989Z,6.20
2022-08-22T07:27:55.001Z,4.82
2022-08-22T07:30:27.509Z,5.90
2022-08-22T07:33:25.779Z,6.18
2022-08-22T07:35:53.910Z,6.35
2022-08-22T07:38:53.694Z,6.22
2022-08-22T07:41:23.443Z,5.47
2022-08-22T07:43:52.164Z,5.53
2022-08-22T07:46:19.251Z,5.85
2022-08-22T07:49:08.129Z,4.97
2022-08-22T07:51:40.687Z,4.20
2022-08-22T07:54:10.263Z,4.78
2022-08-22T07:56:42.245Z,4.18
2022-08-22T07:59:17.548Z,3.67
2022-08-22T08:01:49.657Z,3.67
2022-08-22T08:04:19.619Z,3.45
2022-08-22T08:06:52.602Z,3.75
2022-08-22T08:09:20.087Z,3.70
2022-08-22T08:11:49.330Z,4.22
2022-08-22T08:14:16.848Z,3.30
2022-08-22T08:17:04.204Z,3.08
2022-08-22T08:19:32.696Z,3.65
2022-08-22T08:22:00.093Z,3.38
2022-08-22T08:24:31.617Z,3.15
2022-08-22T08:27:28.769Z,3.08
2022-08-22T08:29:58.908Z,3.15
2022-08-22T08:32:28.599Z,3.83
2022-08-22T08:34:55.791Z,3.20
2022-08-22T08:37:27.405Z,3.50
2022-08-22T08:39:57.612Z,3.75
2022-08-22T08:43:03.275Z,3.42
2022-08-22T08:45:33.066Z,4.03
2022-08-22T08:48:06.646Z,3.42
2022-08-22T08:50:52.663Z,3.33
2022-08-22T08:53:35.402Z,3.90
2022-08-22T08:56:06.035Z,3.13
2022-08-22T08:58:48.798Z,3.28
2022-08-22T09:01:36.640Z,3.38
2022-08-22T09:04:15.412Z,3.53
2022-08-22T09:06:54.584Z,3.00
2022-08-22T09:09:31.767Z,1.90
2022-08-22T09:12:23.367Z,3.03
2022-08-22T09:15:11.905Z,2.85
2022-08-22T09:17:58.274Z,2.60
2022-08-22T09:20:56.248Z,2.90
2022-08-22T09:23:35.464Z,2.75
2022-08-22T09:26:06.168Z,2.45
2022-08-22T09:28:42.430Z,2.13
2022-08-22T09:31:32.982Z,2.28
2022-08-22T09:34:12.674Z,2.88
2022-08-22T09:37:02.548Z,2.30
2022-08-22T09:39:36.241Z,2.47
2022-08-22T09:42:17.407Z,2.50
2022-08-22T09:45:05.365Z,2.78
2022-08-22T09:47:39.889Z,2.10
2022-08-22T09:50:13.132Z,2.28
2022-08-22T09:52:48.943Z,2.08
2022-08-22T09:55:35.031Z,2.08
2022-08-22T09:58:23.554Z,2.15
2022-08-22T10:00:55.661Z,2.00
2022-08-22T10:03:41.680Z,2.40
2022-08-22T10:06:14.213Z,2.08
2022-08-22T10:09:01.784Z,2.33
2022-08-22T10:11:55.047Z,2.05
2022-08-22T10:14:25.060Z,2.55
2022-08-22T10:17:06.279Z,2.00
2022-08-22T10:19:40.844Z,2.53
2022-08-22T10:22:29.878Z,2.63
2022-08-22T10:25:10.310Z,2.15
2022-08-22T10:27:49.776Z,2.10
2022-08-22T10:30:40.404Z,2.33
2022-08-22T10:33:17.359Z,2.15
2022-08-22T10:35:48.492Z,2.05
2022-08-22T10:38:27.494Z,2.67
2022-08-22T10:41:18.429Z,3.20
2022-08-22T10:43:56.420Z,2.38
2022-08-22T10:46:42.165Z,2.45
2022-08-22T10:49:19.734Z,2.38
2022-08-22T10:51:58.360Z,1.90
2022-08-22T10:54:44.046Z,2.33
2022-08-22T10:57:29.644Z,4.32
2022-08-22T11:00:16.320Z,2.58
2022-08-22T11:02:53.628Z,2.08
2022-08-22T11:05:39.529Z,2.15
2022-08-22T11:08:15.678Z,2.38
2022-08-22T11:11:02.159Z,2.00
2022-08-22T11:13:49.612Z,2.80
2022-08-22T11:16:22.550Z,2.47
2022-08-22T11:19:01.883Z,2.80
2022-08-22T11:21:30.196Z,2.60
2022-08-22T11:24:17.167Z,2.08
2022-08-22T11:27:02.080Z,2.25
2022-08-22T11:29:43.569Z,2.70
2022-08-22T11:32:17.490Z,2.25
2022-08-22T11:34:53.798Z,1.85
2022-08-22T11:37:43.441Z,2.25
2022-08-22T11:40:14.429Z,2.08
2022-08-22T11:42:47.961Z,1.90
2022-08-22T11:45:27.504Z,1.73
2022-08-22T11:48:05.276Z,1.63
2022-08-22T11:50:36.585Z,1.95
2022-08-22T11:53:24.954Z,1.42
2022-08-22T11:55:52.087Z,2.22
2022-08-22T11:58:29.020Z,1.65
2022-08-22T12:00:59.546Z,2.25
2022-08-22T12:03:58.175Z,1.90
2022-08-22T12:06:43.984Z,1.98
2022-08-22T12:09:23.269Z,2.33
2022-08-22T12:12:13.480Z,1.85
2022-08-22T12:14:55.107Z,2.20
2022-08-22T12:17:59.914Z,1.85
2022-08-22T12:21:11.166Z,2.08
2022-08-22T12:23:50.413Z,2.08
2022-08-22T12:26:22.133Z,2.25
2022-08-22T12:29:01.689Z,2.10
2022-08-22T12:31:31.585Z,1.75
2022-08-22T12:34:09.640Z,1.65
2022-08-22T12:36:56.745Z,2.05
2022-08-22T12:39:43.179Z,1.50
2022-08-22T12:42:13.829Z,1.88
2022-08-22T12:44:40.933Z,1.35
2022-08-22T12:47:26.780Z,1.60
2022-08-22T12:50:13.429Z,1.20
2022-08-22T12:52:55.696Z,1.48
2022-08-22T12:55:34.930Z,1.77
2022-08-22T12:58:09.762Z,1.30
2022-08-22T13:00:47.923Z,1.45
2022-08-22T13:03:29.712Z,1.73
2022-08-22T13:06:00.339Z,1.42
2022-08-22T13:08:44.334Z,1.50
2022-08-22T13:11:22.860Z,1.58
2022-08-22T13:13:57.426Z,1.52
2022-08-22T13:18:59.062Z,1.00
2022-08-22T13:21:35.916Z,1.63
2022-08-22T13:24:22.774Z,1.42
2022-08-22T13:27:06.720Z,1.40
2022-08-22T13:29:49.590Z,1.55
2022-08-22T13:32:40.031Z,1.27
2022-08-22T13:35:23.885Z,1.60
2022-08-22T13:37:58.094Z,1.67
2022-08-22T13:40:29.008Z,1.20
2022-08-22T13:43:08.225Z,1.80
2022-08-22T13:45:36.662Z,1.92
2022-08-22T13:48:11.421Z,2.13
2022-08-22T13:50:57.774Z,1.70
2022-08-22T13:53:38.232Z,1.75
2022-08-22T13:56:20.798Z,1.75
2022-08-22T13:58:50.816Z,2.28
2022-08-22T14:01:25.551Z,1.70
2022-08-22T14:04:28.293Z,1.30
2022-08-22T14:07:03.669Z,1.83
2022-08-22T14:09:54.230Z,1.73
2022-08-22T14:12:26.612Z,1.80
2022-08-22T14:15:00.759Z,1.65
2022-08-22T14:17:42.431Z,1.48
2022-08-22T14:20:32.024Z,1.63
2022-08-22T14:23:07.814Z,1.70
2022-08-22T14:25:38.080Z,2.22
2022-08-22T14:28:09.213Z,1.95
2022-08-22T14:30:39.755Z,1.52
2022-08-22T14:33:13.732Z,1.73
2022-08-22T14:35:52.671Z,1.15
2022-08-22T14:38:30.627Z,2.17
2022-08-22T14:41:19.782Z,1.58
2022-08-22T14:43:53.128Z,1.60
2022-08-22T14:46:23.531Z,1.70
2022-08-22T14:48:56.807Z,1.73
2022-08-22T14:51:25.870Z,1.60
2022-08-22T14:53:53.481Z,1.58
2022-08-22T14:56:23.949Z,1.80
2022-08-22T14:58:52.898Z,1.70
2022-08-22T15:01:22.250Z,1.52
2022-08-22T15:04:09.537Z,1.77
2022-08-22T15:07:06.811Z,2.10
2022-08-22T15:09:42.804Z,1.73
2022-08-22T15:12:34.822Z,1.45
2022-08-22T15:15:13.717Z,1.77
2022-08-22T15:17:50.928Z,1.67
2022-08-22T15:20:27.980Z,1.55
2022-08-22T15:22:56.253Z,1.33
2022-08-22T15:25:26.134Z,1.58
2022-08-22T15:27:58.146Z,1.60
2022-08-22T15:30:33.634Z,1.50
2022-08-22T15:33:10.175Z,1.50
2022-08-22T15:35:38.984Z,1.77
2022-08-22T15:38:08.410Z,1.45
2022-08-22T15:40:43.194Z,1.50
2022-08-22T15:43:15.894Z,1.60
2022-08-22T15:45:43.892Z,1.65
2022-08-22T15:48:30.026Z,1.52
2022-08-22T15:51:00.119Z,2.40
2022-08-22T15:53:33.697Z,1.95
2022-08-22T15:56:06.750Z,2.35
2022-08-22T15:58:40.144Z,1.60
2022-08-22T16:01:19.652Z,1.77
2022-08-22T16:04:13.293Z,1.88
2022-08-22T16:06:51.413Z,2.30
2022-08-22T16:09:37.253Z,1.65
2022-08-22T16:12:10.852Z,1.88
2022-08-22T16:14:37.902Z,1.88
2022-08-22T16:17:08.016Z,2.22
2022-08-22T16:19:36.252Z,1.80
2022-08-22T16:22:05.690Z,1.90
2022-08-22T16:24:53.079Z,1.88
2022-08-22T16:27:24.363Z,1.70
2022-08-22T16:30:02.969Z,1.83
2022-08-22T16:32:29.971Z,1.77
2022-08-22T16:34:56.703Z,1.92
2022-08-22T16:37:48.055Z,1.58
2022-08-22T16:40:22.752Z,2.08
2022-08-22T16:42:51.824Z,1.60
2022-08-22T16:45:31.539Z,1.52
2022-08-22T16:47:59.287Z,1.55
2022-08-22T16:50:28.938Z,1.60
2022-08-22T16:52:56.038Z,1.48
2022-08-22T16:55:28.702Z,1.85
2022-08-22T16:58:14.361Z,1.50
2022-08-22T17:01:06.394Z,1.63
2022-08-22T17:04:06.611Z,1.77
2022-08-22T17:06:36.187Z,1.75
2022-08-22T17:09:50.703Z,2.40
2022-08-22T17:12:54.552Z,1.63
2022-08-22T17:15:52.318Z,1.33
2022-08-22T17:18:45.343Z,1.70
2022-08-22T17:21:39.765Z,1.50
2022-08-22T17:24:33.723Z,1.40
2022-08-22T17:29:39.664Z,1.80
2022-08-22T17:32:59.853Z,1.50
2022-08-22T17:35:46.984Z,1.50
2022-08-22T17:38:22.931Z,1.60
2022-08-22T17:40:52.389Z,1.55
2022-08-22T17:43:28.260Z,1.73
2022-08-22T17:46:35.092Z,1.50
2022-08-22T17:49:35.262Z,1.70
2022-08-22T17:52:21.331Z,1.80
2022-08-22T17:54:57.458Z,1.90
2022-08-22T17:58:01.486Z,1.60
2022-08-22T18:00:33.121Z,1.40
2022-08-22T18:03:08.773Z,1.60
2022-08-22T18:05:54.649Z,1.33
2022-08-22T18:11:42.317Z,1.70
2022-08-22T18:14:25.537Z,1.65
2022-08-22T18:16:54.316Z,1.90
2022-08-22T18:19:24.099Z,1.70
2022-08-22T18:21:59.596Z,1.48
2022-08-22T18:24:38.179Z,1.67
2022-08-22T18:27:34.208Z,1.77
2022-08-22T18:30:26.455Z,1.67
2022-08-22T18:33:18.815Z,1.77
2022-08-22T18:35:55.573Z,1.80
2022-08-22T18:38:33.956Z,1.58
2022-08-22T18:41:22.074Z,1.65
2022-08-22T18:43:50.852Z,2.03
2022-08-22T18:46:26.640Z,1.80
2022-08-22T18:49:14.092Z,1.90
2022-08-22T18:51:41.566Z,2.03
2022-08-22T18:54:08.237Z,1.92
2022-08-22T18:56:50.266Z,2.13
2022-08-22T18:59:53.559Z,1.90
2022-08-22T19:02:55.883Z,1.67
2022-08-22T19:05:44.521Z,1.80
2022-08-22T19:08:53.504Z,1.90
2022-08-22T19:11:37.453Z,1.92
2022-08-22T19:14:20.589Z,2.20
2022-08-22T19:17:17.417Z,2.00
2022-08-22T19:20:18.340Z,1.95
2022-08-22T19:22:45.921Z,2.00
2022-08-22T19:25:20.968Z,2.08
2022-08-22T19:28:06.299Z,2.08
2022-08-22T19:30:42.293Z,1.70
2022-08-22T19:33:16.328Z,2.08
2022-08-22T19:36:10.739Z,1.77
2022-08-22T19:38:56.664Z,1.73
2022-08-22T19:41:41.575Z,1.92
2022-08-22T19:44:20.260Z,1.70
2022-08-22T19:47:01.008Z,1.70
2022-08-22T19:49:36.002Z,1.65
2022-08-22T19:52:23.853Z,1.88
2022-08-22T19:55:11.540Z,1.55
2022-08-22T19:57:40.919Z,1.75
2022-08-22T20:00:15.759Z,1.38
2022-08-22T20:03:01.925Z,2.05
2022-08-22T20:05:51.754Z,1.50
2022-08-22T20:08:57.238Z,1.65
2022-08-22T20:11:58.793Z,1.80
2022-08-22T20:14:30.460Z,2.13
2022-08-22T20:17:25.475Z,1.98
2022-08-22T20:20:17.546Z,1.20
2022-08-22T20:22:52.722Z,1.85
2022-08-22T20:25:42.527Z,1.70
2022-08-22T20:28:50.701Z,1.90
2022-08-22T20:31:24.365Z,1.50
2022-08-22T20:34:19.753Z,1.80
2022-08-22T20:36:59.623Z,1.50
2022-08-22T20:39:50.117Z,1.90
2022-08-22T20:42:28.557Z,2.30
2022-08-22T20:44:56.070Z,2.05
2022-08-22T20:47:25.539Z,1.80
2022-08-22T20:49:52.187Z,1.75
2022-08-22T20:52:28.917Z,1.70
2022-08-22T20:55:04.625Z,1.60
2022-08-22T20:57:32.082Z,1.67
2022-08-22T21:00:12.425Z,1.83
2022-08-22T21:02:44.167Z,1.45
2022-08-22T21:05:13.866Z,1.90
2022-08-22T21:07:46.575Z,2.05
2022-08-22T21:10:44.356Z,2.63
2022-08-22T21:13:23.678Z,2.13
2022-08-22T21:16:00.720Z,2.13
2022-08-22T21:18:34.994Z,3.83
2022-08-22T21:21:16.946Z,1.90
2022-08-22T21:23:50.254Z,1.88
2022-08-22T21:26:34.010Z,2.35
2022-08-22T21:29:03.556Z,2.30
2022-08-22T21:31:33.391Z,2.10
2022-08-22T21:34:01.043Z,2.00
2022-08-22T21:36:30.587Z,2.67
2022-08-22T21:39:12.575Z,2.40
2022-08-22T21:41:48.267Z,2.53
2022-08-22T21:44:38.240Z,3.33
2022-08-22T21:47:31.181Z,2.38
2022-08-22T21:50:13.375Z,1.77
2022-08-22T21:52:44.213Z,2.35
2022-08-22T21:55:16.989Z,2.28
2022-08-22T21:57:44.496Z,2.53
2022-08-22T22:00:48.569Z,2.28
2022-08-22T22:03:18.760Z,1.98
2022-08-22T22:05:45.528Z,2.72
2022-08-22T22:08:12.807Z,2.92
2022-08-22T22:10:43.557Z,2.80
2022-08-22T22:13:10.736Z,2.50
2022-08-22T22:15:46.110Z,2.75
2022-08-22T22:18:15.585Z,2.20
2022-08-22T22:20:43.097Z,3.28
2022-08-22T22:23:10.451Z,1.75
2022-08-22T22:25:42.117Z,2.90
2022-08-22T22:28:37.493Z,2.03
2022-08-22T22:31:05.323Z,2.20
2022-08-22T22:33:37.882Z,2.42
2022-08-22T22:36:12.567Z,1.92
2022-08-22T22:38:40.667Z,2.22
2022-08-22T22:41:07.875Z,3.08
2022-08-22T22:43:34.715Z,2.78
2022-08-22T22:46:01.445Z,2.70
2022-08-22T22:48:28.144Z,3.00
2022-08-22T22:50:55.269Z,3.17
2022-08-22T22:53:28.621Z,2.50
2022-08-22T22:56:07.344Z,2.95
2022-08-22T22:58:37.274Z,2.92
2022-08-22T23:01:20.541Z,3.03
2022-08-22T23:03:48.275Z,2.67
2022-08-22T23:06:18.118Z,2.67
2022-08-22T23:08:45.446Z,3.10
2022-08-22T23:11:14.075Z,3.47
2022-08-22T23:13:42.967Z,2.85
2022-08-22T23:16:12.885Z,2.45
2022-08-22T23:18:40.328Z,2.85
2022-08-22T23:21:28.052Z,2.28
2022-08-22T23:23:59.175Z,2.78
2022-08-22T23:26:26.929Z,2.60
2022-08-22T23:28:53.608Z,2.75
2022-08-22T23:31:39.479Z,3.40
2022-08-22T23:34:15.700Z,2.20
2022-08-22T23:36:46.044Z,2.60
2022-08-22T23:39:14.379Z,2.78
2022-08-22T23:41:41.876Z,2.72
2022-08-22T23:44:13.469Z,2.95
2022-08-22T23:46:41.381Z,2.58
2022-08-22T23:49:08.269Z,2.67
2022-08-22T23:51:35.558Z,2.55
2022-08-22T23:54:03.525Z,3.08
2022-08-22T23:56:37.446Z,2.58
